Time;durP1;ratioP1;P1;durP2;ratioP2;P2;SDS_P1;SDS_P2;PMS_P1;PMS_P2;Temp;Humidity;BMP_temperature;BMP_pressure;BME280_temperature;BME280_humidity;BME280_pressure;Samples;Min_cycle;Max_cycle;Signal;HPM_P1;HPM_P2
2021/03/26 00:00:56;;;;;;;25.17;17.73;;;11.00;83.20;;;;;;5095771;28;20462;-74
2021/03/26 00:03:25;;;;;;;24.73;17.40;;;11.00;83.20;;;;;;5095714;28;20597;-73
2021/03/26 00:05:54;;;;;;;23.20;18.23;;;11.00;83.30;;;;;;5095810;28;20504;-74
2021/03/26 00:08:21;;;;;;;28.80;19.00;;;11.00;83.20;;;;;;5095654;28;20447;-73
2021/03/26 00:10:47;;;;;;;28.03;18.93;;;11.00;83.20;;;;;;5095914;28;20440;-74
2021/03/26 00:13:14;;;;;;;31.77;21.03;;;11.00;83.40;;;;;;5095745;28;20494;-74
2021/03/26 00:15:40;;;;;;;26.73;19.07;;;10.90;83.50;;;;;;5095856;28;20450;-73
2021/03/26 00:18:07;;;;;;;22.87;17.50;;;10.90;83.60;;;;;;5095854;28;20448;-74
2021/03/26 00:20:34;;;;;;;23.80;19.03;;;10.90;83.70;;;;;;5095759;28;20448;-74
2021/03/26 00:23:01;;;;;;;28.60;19.07;;;10.90;83.70;;;;;;5095657;28;20459;-73
2021/03/26 00:25:27;;;;;;;27.70;19.70;;;10.90;83.90;;;;;;5095657;28;20448;-73
2021/03/26 00:27:55;;;;;;;25.67;18.20;;;10.90;84.60;;;;;;5095636;28;20496;-73
2021/03/26 00:30:23;;;;;;;30.70;18.33;;;10.90;83.80;;;;;;5095609;28;20474;-74
2021/03/26 00:32:49;;;;;;;31.07;19.07;;;10.90;83.70;;;;;;5095412;28;20903;-74
2021/03/26 00:35:19;;;;;;;24.07;19.90;;;11.00;83.60;;;;;;5094668;28;21018;-73
2021/03/26 00:37:45;;;;;;;28.47;19.50;;;10.90;83.20;;;;;;5095403;28;20447;-73
2021/03/26 00:40:16;;;;;;;26.20;21.27;;;11.00;83.20;;;;;;5095390;28;20792;-73
2021/03/26 00:42:42;;;;;;;32.10;20.00;;;11.00;82.90;;;;;;5095271;28;20467;-73
2021/03/26 00:45:12;;;;;;;26.00;18.67;;;11.00;82.90;;;;;;5095319;28;20451;-73
2021/03/26 00:47:39;;;;;;;39.17;20.10;;;11.00;82.90;;;;;;5095199;28;20482;-73
2021/03/26 00:50:08;;;;;;;27.23;18.97;;;11.00;82.80;;;;;;5095254;28;20778;-74
2021/03/26 00:52:35;;;;;;;28.70;20.73;;;11.00;82.50;;;;;;5095735;28;20483;-74
2021/03/26 00:55:02;;;;;;;28.97;20.40;;;11.00;82.50;;;;;;5094870;28;20436;-73
2021/03/26 00:57:28;;;;;;;29.53;20.57;;;10.90;82.40;;;;;;5095038;28;20443;-73
2021/03/26 00:59:55;;;;;;;32.27;19.40;;;11.00;82.30;;;;;;5094957;28;20448;-73
2021/03/26 01:02:21;;;;;;;27.20;19.53;;;10.90;82.10;;;;;;5094558;28;20558;-73
2021/03/26 01:04:47;;;;;;;32.67;20.80;;;10.90;82.10;;;;;;5094636;28;20444;-73
2021/03/26 01:07:14;;;;;;;26.33;19.67;;;10.90;82.00;;;;;;5094680;28;20535;-73
2021/03/26 01:09:41;;;;;;;34.43;22.70;;;10.90;82.00;;;;;;5094818;28;20502;-73
2021/03/26 01:12:08;;;;;;;30.20;21.77;;;10.90;82.20;;;;;;5094661;28;20487;-73
2021/03/26 01:14:35;;;;;;;34.10;23.70;;;10.90;82.50;;;;;;5094683;28;20447;-73
2021/03/26 01:17:02;;;;;;;30.53;22.37;;;10.90;82.80;;;;;;5094394;28;20807;-73
2021/03/26 01:19:28;;;;;;;34.90;24.17;;;10.80;82.70;;;;;;5094642;28;20546;-73
2021/03/26 01:21:54;;;;;;;29.50;21.70;;;10.80;82.60;;;;;;5094462;28;20436;-73
2021/03/26 01:24:21;;;;;;;26.67;20.83;;;10.70;82.50;;;;;;5094495;28;20444;-73
2021/03/26 01:26:48;;;;;;;32.30;22.00;;;10.70;82.40;;;;;;5094103;28;20822;-73
2021/03/26 01:29:14;;;;;;;28.57;20.87;;;10.70;82.10;;;;;;5094444;28;20440;-72
2021/03/26 01:31:40;;;;;;;29.30;21.27;;;10.60;81.80;;;;;;5094187;28;20440;-73
2021/03/26 01:34:07;;;;;;;32.73;21.73;;;10.60;81.70;;;;;;5094390;28;20444;-73
2021/03/26 01:36:34;;;;;;;30.20;22.73;;;10.60;81.60;;;;;;5093890;28;20827;-73
2021/03/26 01:39:01;;;;;;;29.67;22.40;;;10.50;81.80;;;;;;5094249;28;20452;-73
2021/03/26 01:41:35;;;;;;;30.87;24.00;;;10.50;81.90;;;;;;5094266;28;20488;-73
2021/03/26 01:44:04;;;;;;;28.13;22.13;;;10.40;82.30;;;;;;5094127;28;20462;-73
2021/03/26 01:46:30;;;;;;;25.07;20.40;;;10.40;82.10;;;;;;5093003;28;20798;-73
2021/03/26 01:48:59;;;;;;;29.37;23.40;;;10.40;82.00;;;;;;5094124;28;20438;-73
2021/03/26 01:51:28;;;;;;;34.30;24.53;;;10.40;83.00;;;;;;5093789;28;20783;-73
2021/03/26 01:53:55;;;;;;;31.80;23.50;;;10.40;83.90;;;;;;5093880;28;20529;-73
2021/03/26 01:56:21;;;;;;;33.70;26.00;;;10.40;84.30;;;;;;5093943;28;20458;-72
2021/03/26 01:58:48;;;;;;;34.97;26.77;;;10.40;84.80;;;;;;5093975;28;20444;-72
2021/03/26 02:01:18;;;;;;;35.73;27.63;;;10.40;85.70;;;;;;5093916;28;20455;-73
2021/03/26 02:03:48;;;;;;;37.90;27.83;;;10.40;86.10;;;;;;5093489;28;21045;-73
2021/03/26 02:06:18;;;;;;;33.20;26.40;;;10.30;87.00;;;;;;5093834;28;20451;-73
2021/03/26 02:08:45;;;;;;;37.50;27.50;;;10.40;86.30;;;;;;5093748;28;20443;-73
2021/03/26 02:11:20;;;;;;;33.57;25.40;;;10.40;86.20;;;;;;5093767;28;20440;-73
2021/03/26 02:13:47;;;;;;;37.87;26.73;;;10.40;86.00;;;;;;5093618;28;20536;-73
2021/03/26 02:16:15;;;;;;;32.67;25.13;;;10.40;85.90;;;;;;5093646;28;20455;-73
2021/03/26 02:18:42;;;;;;;35.50;27.67;;;10.40;85.70;;;;;;5093669;28;20472;-73
2021/03/26 02:21:13;;;;;;;33.23;25.50;;;10.40;85.50;;;;;;5093335;28;20508;-73
2021/03/26 02:23:41;;;;;;;33.40;26.03;;;10.40;85.60;;;;;;5093566;28;20538;-73
2021/03/26 02:26:11;;;;;;;36.00;25.23;;;10.40;85.50;;;;;;5093640;28;20444;-73
2021/03/26 02:28:38;;;;;;;39.27;27.43;;;10.40;85.20;;;;;;5093684;28;20428;-73
2021/03/26 02:31:04;;;;;;;32.17;23.97;;;10.50;84.70;;;;;;5093506;28;20452;-73
2021/03/26 02:33:30;;;;;;;36.57;25.27;;;10.40;84.50;;;;;;5093389;28;20486;-73
2021/03/26 02:36:47;;;;;;;34.27;27.50;;;10.40;84.60;;;;;;5093494;28;20443;-73
2021/03/26 02:39:25;;;;;;;36.83;26.50;;;10.30;85.00;;;;;;5093514;28;20428;-73
2021/03/26 02:41:55;;;;;;;40.10;25.97;;;10.30;85.20;;;;;;5093050;28;20941;-73
2021/03/26 02:44:31;;;;;;;32.07;26.50;;;10.30;85.30;;;;;;5093416;28;20451;-73
2021/03/26 02:47:06;;;;;;;34.50;24.83;;;10.30;85.40;;;;;;5093421;28;20431;-73
2021/03/26 02:49:40;;;;;;;38.00;29.17;;;10.30;85.80;;;;;;5093437;28;20438;-73
2021/03/26 02:52:13;;;;;;;36.57;27.57;;;10.20;85.80;;;;;;5093208;28;20466;-73
2021/03/26 02:54:44;;;;;;;40.30;28.10;;;10.20;85.80;;;;;;5093385;28;20427;-73
2021/03/26 02:57:14;;;;;;;35.03;26.47;;;10.20;85.80;;;;;;5094148;28;20428;-73
2021/03/26 02:59:45;;;;;;;32.70;25.90;;;10.20;85.90;;;;;;5097035;28;20930;-73
2021/03/26 03:02:14;;;;;;;32.60;25.60;;;10.20;85.50;;;;;;5097238;28;20462;-73
2021/03/26 03:04:45;;;;;;;37.40;26.20;;;10.10;85.20;;;;;;5097279;28;20443;-73
2021/03/26 03:07:16;;;;;;;37.47;27.93;;;10.10;84.60;;;;;;5096974;28;20463;-73
2021/03/26 03:09:47;;;;;;;32.57;25.50;;;10.00;85.10;;;;;;5097190;28;20427;-73
2021/03/26 03:12:18;;;;;;;34.10;24.70;;;10.00;84.90;;;;;;5096968;28;20494;-73
2021/03/26 03:14:48;;;;;;;33.60;25.37;;;10.00;84.80;;;;;;5097066;28;20802;-73
2021/03/26 03:17:21;;;;;;;38.60;27.77;;;10.00;84.20;;;;;;5097016;28;20440;-73
2021/03/26 03:19:54;;;;;;;34.23;25.60;;;9.90;85.10;;;;;;5096996;28;20431;-73
2021/03/26 03:22:27;;;;;;;29.07;22.80;;;9.90;85.50;;;;;;5096889;28;20468;-73
2021/03/26 03:24:58;;;;;;;39.97;25.27;;;9.80;84.50;;;;;;5096929;28;20432;-73
2021/03/26 03:27:36;;;;;;;29.87;23.33;;;9.80;84.10;;;;;;5096462;28;20901;-73
2021/03/26 03:30:18;;;;;;;32.60;24.53;;;9.70;83.80;;;;;;5097555;28;20436;-73
2021/03/26 03:32:53;;;;;;;28.03;23.70;;;9.70;83.50;;;;;;5096557;28;20487;-73
2021/03/26 03:35:27;;;;;;;31.50;21.90;;;9.60;83.10;;;;;;5096393;28;20924;-73
2021/03/26 03:38:10;;;;;;;29.93;23.57;;;9.60;83.50;;;;;;5096625;28;20436;-73
2021/03/26 03:40:48;;;;;;;30.97;22.97;;;9.60;83.90;;;;;;5096662;28;20424;-73
2021/03/26 03:43:20;;;;;;;28.53;22.70;;;9.60;83.50;;;;;;5096456;28;20832;-73
2021/03/26 03:45:51;;;;;;;32.83;23.90;;;9.60;83.60;;;;;;5096164;28;20435;-73
2021/03/26 03:48:22;;;;;;;29.83;22.60;;;9.60;83.80;;;;;;5096474;28;20428;-73
2021/03/26 03:50:57;;;;;;;28.83;22.97;;;9.60;83.70;;;;;;5096461;28;20428;-73
2021/03/26 03:53:29;;;;;;;28.53;22.97;;;9.60;83.60;;;;;;5096291;28;20486;-73
2021/03/26 03:56:02;;;;;;;32.07;23.50;;;9.60;83.80;;;;;;5096049;28;20846;-73
2021/03/26 03:58:33;;;;;;;32.67;23.80;;;9.60;84.70;;;;;;5096231;28;20481;-73
2021/03/26 04:01:04;;;;;;;29.47;22.33;;;9.60;84.70;;;;;;5096198;28;20428;-73
2021/03/26 04:03:43;;;;;;;33.70;23.90;;;9.60;84.50;;;;;;5096095;28;20509;-73
2021/03/26 04:06:14;;;;;;;30.70;23.30;;;9.60;84.60;;;;;;5095839;28;20427;-73
2021/03/26 04:08:44;;;;;;;31.53;22.67;;;9.60;84.60;;;;;;5094785;28;20463;-73
2021/03/26 04:11:17;;;;;;;28.30;21.97;;;9.60;84.30;;;;;;5096044;28;20431;-73
2021/03/26 04:13:49;;;;;;;29.93;22.53;;;9.60;84.30;;;;;;5095916;28;20577;-73
2021/03/26 04:16:19;;;;;;;28.30;21.80;;;9.60;84.40;;;;;;5095856;28;20439;-73
2021/03/26 04:18:50;;;;;;;28.73;21.70;;;9.50;85.00;;;;;;5095890;28;20428;-72
2021/03/26 04:21:21;;;;;;;27.77;21.83;;;9.50;85.40;;;;;;5095518;28;20428;-73
2021/03/26 04:23:54;;;;;;;29.57;22.80;;;9.50;85.50;;;;;;5095803;28;20521;-73
2021/03/26 04:26:25;;;;;;;34.60;24.50;;;9.40;85.90;;;;;;5095795;28;20489;-73
2021/03/26 04:29:01;;;;;;;30.30;23.53;;;9.40;86.40;;;;;;5095766;28;20439;-72
2021/03/26 04:31:33;;;;;;;32.53;24.33;;;9.40;86.70;;;;;;5095653;28;20427;-72
2021/03/26 04:34:00;;;;;;;37.30;25.97;;;9.30;86.90;;;;;;5095526;28;20483;-72
2021/03/26 04:36:32;;;;;;;29.03;23.30;;;9.30;87.10;;;;;;5095485;28;20497;-72
2021/03/26 04:39:03;;;;;;;30.10;23.80;;;9.30;87.30;;;;;;5095271;28;20428;-72
2021/03/26 04:41:39;;;;;;;33.50;23.03;;;9.30;87.30;;;;;;5095596;28;20525;-73
2021/03/26 04:44:12;;;;;;;35.50;26.27;;;9.20;87.20;;;;;;5095529;28;20459;-73
2021/03/26 04:46:46;;;;;;;34.57;25.50;;;9.10;87.90;;;;;;5095551;28;20842;-72
2021/03/26 04:49:17;;;;;;;33.20;26.27;;;9.00;88.30;;;;;;5095517;28;20440;-72
2021/03/26 04:51:48;;;;;;;31.30;24.13;;;8.90;88.90;;;;;;5095262;28;20488;-73
2021/03/26 04:54:19;;;;;;;35.67;26.20;;;8.80;89.40;;;;;;5095179;28;20473;-72
2021/03/26 04:56:49;;;;;;;31.20;23.73;;;8.80;89.60;;;;;;5095244;28;20428;-72
2021/03/26 04:59:22;;;;;;;36.33;26.63;;;8.80;89.70;;;;;;5094827;28;20937;-72
2021/03/26 05:01:50;;;;;;;30.57;22.17;;;8.80;89.70;;;;;;5094952;28;20489;-73
2021/03/26 05:04:22;;;;;;;36.50;26.57;;;8.80;89.90;;;;;;5095099;28;20447;-72
2021/03/26 05:06:56;;;;;;;34.03;23.60;;;8.80;89.60;;;;;;5094746;28;20466;-72
2021/03/26 05:09:25;;;;;;;36.77;25.77;;;8.80;89.70;;;;;;5094990;28;20551;-72
2021/03/26 05:11:57;;;;;;;34.30;27.00;;;8.80;89.90;;;;;;5094732;28;20489;-72
2021/03/26 05:14:29;;;;;;;36.23;25.23;;;8.70;90.00;;;;;;5095600;28;20464;-72
2021/03/26 05:16:59;;;;;;;34.17;25.30;;;8.60;90.10;;;;;;5094861;28;20428;-72
2021/03/26 05:19:30;;;;;;;40.40;26.87;;;8.60;90.30;;;;;;5095080;28;20448;-72
2021/03/26 05:22:05;;;;;;;38.17;27.33;;;8.60;90.50;;;;;;5094169;28;20882;-72
2021/03/26 05:24:36;;;;;;;33.40;23.50;;;8.50;90.60;;;;;;5094417;28;20909;-72
2021/03/26 05:27:06;;;;;;;34.30;24.23;;;8.50;90.60;;;;;;5094624;28;20425;-72
2021/03/26 05:29:34;;;;;;;35.90;25.00;;;8.50;90.60;;;;;;5094672;28;20622;-72
2021/03/26 05:32:11;;;;;;;34.80;24.80;;;8.50;90.60;;;;;;5094384;28;20450;-72
2021/03/26 05:34:48;;;;;;;35.47;27.60;;;8.50;90.60;;;;;;5094435;28;20431;-72
2021/03/26 05:37:20;;;;;;;37.10;27.00;;;8.50;90.50;;;;;;5094472;28;20429;-72
2021/03/26 05:39:50;;;;;;;34.77;26.47;;;8.40;90.60;;;;;;5094228;28;20428;-72
2021/03/26 05:42:44;;;;;;;36.53;26.13;;;8.40;90.80;;;;;;5093829;28;21018;-72
2021/03/26 05:45:23;;;;;;;33.60;24.40;;;8.40;91.00;;;;;;5094239;28;20445;-72
2021/03/26 05:48:06;;;;;;;36.13;25.57;;;8.40;90.90;;;;;;5093943;28;20905;-72
2021/03/26 05:50:48;;;;;;;38.23;24.50;;;8.50;90.90;;;;;;5093889;28;20954;-71
2021/03/26 05:53:25;;;;;;;39.50;26.20;;;8.40;90.90;;;;;;5094051;28;20488;-72
2021/03/26 05:55:58;;;;;;;35.30;26.00;;;8.40;90.80;;;;;;5093765;28;20901;-72
2021/03/26 05:58:45;;;;;;;35.53;26.77;;;8.40;90.90;;;;;;5094027;28;20436;-72
2021/03/26 06:01:36;;;;;;;31.00;24.23;;;8.40;91.00;;;;;;5093658;28;20435;-72
2021/03/26 06:04:32;;;;;;;34.83;25.27;;;8.40;91.10;;;;;;5093634;28;20467;-72
2021/03/26 06:07:26;;;;;;;35.07;25.10;;;8.30;91.10;;;;;;5093676;28;20830;-72
2021/03/26 06:10:15;;;;;;;40.73;27.30;;;8.30;91.30;;;;;;5093885;28;20432;-72
2021/03/26 06:13:12;;;;;;;34.17;25.40;;;8.30;91.20;;;;;;5093673;28;20485;-72
2021/03/26 06:16:14;;;;;;;38.93;27.27;;;8.40;91.40;;;;;;5093848;28;20825;-72
2021/03/26 06:19:18;;;;;;;36.07;26.43;;;8.40;91.30;;;;;;5080661;28;20807;-72
2021/03/26 06:21:53;;;;;;;33.13;25.63;;;8.40;91.40;;;;;;5093394;28;20439;-72
2021/03/26 06:24:44;;;;;;;36.57;25.13;;;8.40;91.40;;;;;;5093758;28;20426;-72
2021/03/26 06:27:19;;;;;;;35.43;27.03;;;8.50;91.30;;;;;;5093640;28;20497;-72
2021/03/26 06:30:00;;;;;;;41.77;28.33;;;8.60;91.20;;;;;;5094011;28;20443;-72
2021/03/26 06:33:02;;;;;;;39.07;28.43;;;8.60;91.10;;;;;;5092633;28;20996;-72
2021/03/26 06:36:02;;;;;;;33.70;24.60;;;8.70;91.10;;;;;;5093655;28;20540;-72
2021/03/26 06:39:00;;;;;;;37.60;25.67;;;8.70;90.90;;;;;;5093660;28;20430;-72
2021/03/26 06:41:40;;;;;;;33.33;27.13;;;8.80;90.90;;;;;;5093476;28;20440;-72
2021/03/26 06:44:42;;;;;;;35.37;27.03;;;8.80;90.90;;;;;;5093537;28;20455;-72
2021/03/26 06:47:16;;;;;;;34.93;25.83;;;8.90;90.90;;;;;;5093462;28;20488;-72
2021/03/26 06:49:51;;;;;;;36.40;27.83;;;8.90;90.70;;;;;;5093532;28;20605;-72
2021/03/26 06:52:32;;;;;;;39.63;28.03;;;9.00;90.70;;;;;;5092928;28;21023;-72
2021/03/26 06:55:11;;;;;;;34.67;26.67;;;9.10;90.70;;;;;;5093455;28;20431;-73
2021/03/26 06:58:13;;;;;;;39.40;27.17;;;9.20;90.40;;;;;;5093334;28;20428;-72
2021/03/26 07:01:06;;;;;;;34.13;26.97;;;9.20;90.40;;;;;;5093411;28;20485;-73
2021/03/26 07:03:50;;;;;;;35.33;27.20;;;9.30;90.40;;;;;;5094142;28;20456;-73
2021/03/26 07:06:36;;;;;;;39.93;26.53;;;9.30;90.40;;;;;;5093394;28;20424;-73
2021/03/26 07:09:47;;;;;;;35.07;26.37;;;9.40;90.40;;;;;;5093504;28;20470;-73
2021/03/26 07:12:31;;;;;;;35.73;28.03;;;9.40;90.30;;;;;;5092926;28;21064;-73
2021/03/26 07:15:02;;;;;;;37.60;27.67;;;9.40;90.20;;;;;;5093015;28;20430;-72
2021/03/26 07:17:51;;;;;;;40.67;29.60;;;9.50;90.30;;;;;;5093252;28;20470;-72
2021/03/26 07:20:57;;;;;;;40.97;27.83;;;9.60;90.10;;;;;;5093352;28;20898;-72
2021/03/26 07:24:02;;;;;;;32.93;26.57;;;9.70;90.00;;;;;;5093052;28;20540;-72
2021/03/26 07:26:50;;;;;;;34.33;26.03;;;9.70;90.00;;;;;;5093142;28;20436;-73
2021/03/26 07:29:44;;;;;;;35.00;26.90;;;9.80;90.00;;;;;;5093112;28;20430;-72
2021/03/26 07:32:41;;;;;;;35.83;28.40;;;9.90;90.00;;;;;;5092994;28;20460;-73
2021/03/26 07:35:31;;;;;;;33.87;27.30;;;10.00;88.70;;;;;;5067154;28;20448;-72
2021/03/26 07:38:17;;;;;;;36.07;27.07;;;10.10;88.30;;;;;;5093027;28;20432;-72
2021/03/26 07:40:54;;;;;;;34.37;28.13;;;10.20;88.00;;;;;;5093056;28;20438;-72
2021/03/26 07:43:38;;;;;;;36.67;26.50;;;10.30;87.70;;;;;;5093065;28;20463;-72
2021/03/26 07:46:29;;;;;;;38.60;27.97;;;10.50;87.30;;;;;;5096875;28;20466;-72
2021/03/26 07:49:18;;;;;;;33.43;27.30;;;10.60;87.00;;;;;;5096781;28;20439;-72
2021/03/26 07:51:55;;;;;;;38.87;26.43;;;10.70;86.50;;;;;;5096628;28;20420;-72
2021/03/26 07:54:36;;;;;;;30.00;24.30;;;10.80;86.20;;;;;;5096136;28;20463;-73
2021/03/26 07:57:22;;;;;;;31.10;25.97;;;11.00;85.90;;;;;;5096378;28;20424;-71
2021/03/26 08:00:29;;;;;;;33.80;26.43;;;11.10;85.40;;;;;;5096365;28;20434;-72
2021/03/26 08:03:12;;;;;;;32.00;25.73;;;11.20;84.70;;;;;;5096247;28;20510;-72
2021/03/26 08:05:49;;;;;;;32.80;25.37;;;11.40;84.40;;;;;;5096564;28;20436;-72
2021/03/26 08:08:58;;;;;;;28.43;24.10;;;11.60;83.40;;;;;;5095865;28;20517;-72
2021/03/26 08:12:00;;;;;;;30.23;23.77;;;11.70;82.30;;;;;;5079720;28;20451;-72
2021/03/26 08:15:02;;;;;;;29.07;23.20;;;11.90;81.30;;;;;;5033969;28;20534;-72
2021/03/26 08:17:49;;;;;;;28.20;21.83;;;12.00;81.10;;;;;;5034372;28;20442;-72
2021/03/26 08:20:24;;;;;;;27.47;22.67;;;12.10;80.30;;;;;;5086182;28;20443;-72
2021/03/26 08:23:09;;;;;;;27.00;22.50;;;12.20;79.50;;;;;;5095473;28;20840;-72
2021/03/26 08:25:42;;;;;;;34.47;23.57;;;12.30;79.50;;;;;;5096374;28;20428;-72
2021/03/26 08:28:43;;;;;;;32.17;24.70;;;12.30;79.00;;;;;;5096312;28;20420;-73
2021/03/26 08:31:24;;;;;;;31.83;25.57;;;12.30;79.40;;;;;;5097151;28;20440;-72
2021/03/26 08:34:23;;;;;;;31.00;25.23;;;12.40;79.70;;;;;;5096961;28;20604;-73
2021/03/26 08:36:57;;;;;;;30.80;24.90;;;12.50;80.00;;;;;;5085968;28;20505;-73
2021/03/26 08:39:33;;;;;;;24.57;21.77;;;12.70;79.50;;;;;;5095556;28;20423;-73
2021/03/26 08:42:03;;;;;;;21.93;19.50;;;12.80;78.20;;;;;;5095962;28;20795;-73
2021/03/26 08:44:32;;;;;;;27.13;20.13;;;13.00;76.30;;;;;;5095920;28;20457;-73
2021/03/26 08:47:00;;;;;;;26.40;20.40;;;13.10;76.20;;;;;;5095888;28;20432;-73
2021/03/26 08:49:53;;;;;;;23.50;20.07;;;13.30;76.10;;;;;;5095595;28;20432;-73
2021/03/26 08:52:43;;;;;;;23.00;18.83;;;13.50;74.20;;;;;;5095193;28;20978;-74
2021/03/26 08:55:51;;;;;;;24.23;19.33;;;13.60;73.20;;;;;;5094572;28;20930;-73
2021/03/26 08:58:40;;;;;;;24.67;18.53;;;13.80;72.30;;;;;;5061549;28;20450;-73
2021/03/26 09:01:45;;;;;;;24.60;20.33;;;14.00;72.20;;;;;;5095328;28;20415;-73
2021/03/26 09:04:45;;;;;;;22.00;17.50;;;14.20;71.30;;;;;;5085936;28;20960;-74
2021/03/26 09:07:22;;;;;;;23.50;15.03;;;14.30;71.00;;;;;;5083406;28;20972;-74
2021/03/26 09:10:02;;;;;;;20.47;15.10;;;14.40;68.30;;;;;;5095268;28;20428;-71
2021/03/26 09:12:47;;;;;;;15.53;13.87;;;14.50;67.30;;;;;;5095233;28;20478;-72
2021/03/26 09:15:55;;;;;;;23.90;16.73;;;14.50;66.50;;;;;;5094602;28;20907;-73
2021/03/26 09:18:37;;;;;;;17.97;13.80;;;14.70;66.70;;;;;;5095051;28;20424;-74
2021/03/26 09:21:12;;;;;;;14.40;11.30;;;14.80;66.50;;;;;;5095069;28;20463;-74
2021/03/26 09:24:04;;;;;;;14.10;10.53;;;14.70;62.80;;;;;;5095638;28;20512;-72
2021/03/26 09:26:56;;;;;;;21.23;10.43;;;14.80;62.40;;;;;;5094799;28;20909;-74
2021/03/26 09:29:32;;;;;;;16.03;11.70;;;14.90;61.30;;;;;;5094857;28;20481;-73
2021/03/26 09:32:05;;;;;;;15.43;12.03;;;15.00;60.20;;;;;;5094605;28;20424;-72
2021/03/26 09:34:36;;;;;;;14.17;10.73;;;15.20;61.00;;;;;;5094608;28;20459;-74
2021/03/26 09:37:34;;;;;;;13.83;9.17;;;15.30;58.90;;;;;;5095024;28;20432;-71
2021/03/26 09:40:02;;;;;;;16.37;11.27;;;15.60;59.10;;;;;;5060605;28;20448;-74
2021/03/26 09:42:39;;;;;;;15.30;9.90;;;15.80;58.60;;;;;;5094474;28;20464;-72
2021/03/26 09:45:11;;;;;;;14.90;10.20;;;16.00;56.90;;;;;;5094542;28;20426;-72
2021/03/26 09:47:43;;;;;;;13.70;9.50;;;16.20;56.50;;;;;;5094445;28;20431;-71
2021/03/26 09:50:28;;;;;;;11.90;8.57;;;16.40;56.50;;;;;;5094190;28;20424;-71
2021/03/26 09:52:56;;;;;;;11.63;8.73;;;16.30;55.60;;;;;;5093739;28;20487;-71
2021/03/26 09:55:30;;;;;;;10.70;8.67;;;16.20;56.70;;;;;;5093842;28;20933;-71
2021/03/26 09:58:04;;;;;;;9.87;8.50;;;16.10;55.70;;;;;;5094172;28;20438;-71
2021/03/26 10:00:48;;;;;;;10.93;7.93;;;16.20;55.90;;;;;;5093790;28;20457;-71
2021/03/26 10:03:35;;;;;;;8.70;7.80;;;16.10;54.70;;;;;;5093280;28;20479;-71
2021/03/26 10:06:06;;;;;;;10.50;7.20;;;15.90;55.20;;;;;;5093706;28;20913;-71
2021/03/26 10:08:51;;;;;;;9.87;8.03;;;15.70;56.00;;;;;;5092985;28;20957;-72
2021/03/26 10:11:21;;;;;;;11.23;7.17;;;15.80;56.00;;;;;;5094177;28;20485;-72
2021/03/26 10:13:54;;;;;;;9.50;6.40;;;16.10;54.70;;;;;;5094336;28;20491;-71
2021/03/26 10:16:28;;;;;;;11.23;5.50;;;16.00;54.00;;;;;;5094256;28;20431;-71
2021/03/26 10:19:01;;;;;;;10.23;6.17;;;15.90;54.20;;;;;;5093984;28;20448;-72
2021/03/26 10:21:30;;;;;;;8.57;6.47;;;15.70;54.80;;;;;;5093772;28;20424;-73
2021/03/26 10:24:13;;;;;;;9.70;5.70;;;15.60;54.80;;;;;;5093611;28;20466;-73
2021/03/26 10:26:45;;;;;;;11.60;6.30;;;15.30;54.80;;;;;;5093411;28;20514;-73
2021/03/26 10:29:35;;;;;;;14.60;6.63;;;15.10;55.20;;;;;;5093788;28;20436;-72
2021/03/26 10:32:09;;;;;;;11.23;7.00;;;15.00;56.10;;;;;;5093728;28;20492;-71
2021/03/26 10:34:37;;;;;;;12.97;6.90;;;15.00;56.30;;;;;;5094163;28;20456;-73
2021/03/26 10:37:29;;;;;;;14.93;7.33;;;15.10;56.00;;;;;;5093697;28;20431;-73
2021/03/26 10:40:00;;;;;;;9.63;6.60;;;15.30;56.30;;;;;;5093551;28;20451;-73
2021/03/26 10:42:48;;;;;;;11.40;6.23;;;15.70;54.80;;;;;;5093197;28;20969;-72
2021/03/26 10:45:36;;;;;;;8.20;6.23;;;16.30;55.20;;;;;;5093612;28;20435;-72
2021/03/26 10:48:07;;;;;;;11.83;7.17;;;16.90;52.70;;;;;;5093742;28;20431;-73
2021/03/26 10:50:42;;;;;;;8.57;6.80;;;17.40;51.60;;;;;;5093393;28;20433;-73
2021/03/26 10:53:12;;;;;;;6.87;5.80;;;18.10;50.30;;;;;;5093030;28;20514;-73
2021/03/26 10:55:49;;;;;;;11.53;6.23;;;19.00;48.70;;;;;;5093530;28;20436;-73
2021/03/26 10:58:30;;;;;;;7.73;6.23;;;19.30;45.30;;;;;;5093183;28;20906;-73
2021/03/26 11:01:10;;;;;;;8.60;5.50;;;19.50;45.80;;;;;;5093423;28;20435;-73
2021/03/26 11:03:41;;;;;;;9.10;5.33;;;20.30;43.80;;;;;;5093332;28;20466;-73
2021/03/26 11:06:23;;;;;;;8.00;5.33;;;21.00;42.50;;;;;;5093955;28;20857;-73
2021/03/26 11:08:52;;;;;;;8.00;5.17;;;21.00;40.50;;;;;;5093435;28;20427;-73
2021/03/26 11:11:39;;;;;;;8.30;5.23;;;21.20;41.20;;;;;;5093014;28;20444;-72
2021/03/26 11:14:37;;;;;;;10.53;5.40;;;21.90;39.10;;;;;;5093133;28;20479;-73
2021/03/26 11:17:18;;;;;;;8.73;5.10;;;21.60;39.90;;;;;;5093303;28;20634;-73
2021/03/26 11:19:58;;;;;;;11.57;5.17;;;21.70;40.20;;;;;;5096768;28;20482;-73
2021/03/26 11:22:28;;;;;;;7.60;5.53;;;22.10;39.00;;;;;;5097094;28;20467;-73
2021/03/26 11:25:02;;;;;;;7.30;5.87;;;22.30;37.60;;;;;;5097131;28;20432;-71
2021/03/26 11:27:38;;;;;;;7.73;5.70;;;21.70;38.00;;;;;;5097028;28;20427;-73
2021/03/26 11:30:22;;;;;;;6.40;4.83;;;21.60;37.60;;;;;;5097046;28;20440;-72
2021/03/26 11:32:55;;;;;;;8.63;5.17;;;21.40;38.80;;;;;;5096778;28;20463;-73
2021/03/26 11:35:23;;;;;;;11.60;5.87;;;21.10;40.50;;;;;;5096874;28;20440;-73
2021/03/26 11:37:54;;;;;;;5.70;5.10;;;21.00;40.60;;;;;;5096783;28;20439;-73
2021/03/26 11:40:27;;;;;;;8.07;5.13;;;21.40;40.70;;;;;;5096868;28;20440;-73
2021/03/26 11:42:55;;;;;;;7.63;5.20;;;21.60;38.90;;;;;;5096712;28;20471;-73
2021/03/26 11:45:33;;;;;;;6.40;5.17;;;21.10;39.60;;;;;;5096730;28;20444;-72
2021/03/26 11:48:08;;;;;;;6.53;5.17;;;21.40;39.80;;;;;;5096343;28;20442;-72
2021/03/26 11:50:37;;;;;;;6.80;3.77;;;21.60;39.40;;;;;;5096590;28;20438;-72
2021/03/26 11:53:16;;;;;;;6.90;5.10;;;22.40;38.60;;;;;;5096425;28;20930;-73
2021/03/26 11:55:55;;;;;;;8.40;5.67;;;23.60;35.00;;;;;;5096651;28;20461;-71
2021/03/26 11:58:27;;;;;;;9.50;4.80;;;24.50;33.60;;;;;;5096443;28;20420;-71
2021/03/26 12:00:58;;;;;;;7.90;4.90;;;25.50;33.50;;;;;;5096420;28;20757;-72
2021/03/26 12:03:38;;;;;;;8.53;5.70;;;25.90;31.50;;;;;;5096515;28;20464;-71
2021/03/26 12:06:12;;;;;;;6.37;4.90;;;26.00;30.70;;;;;;5096423;28;20493;-71
2021/03/26 12:08:49;;;;;;;5.50;4.93;;;26.50;30.10;;;;;;5095846;28;20524;-73
2021/03/26 12:11:22;;;;;;;5.73;4.87;;;26.80;29.20;;;;;;5096099;28;20863;-73
2021/03/26 12:13:56;;;;;;;8.93;5.87;;;26.10;29.50;;;;;;5096014;28;20490;-73
2021/03/26 12:16:25;;;;;;;5.43;4.73;;;25.30;30.50;;;;;;5096336;28;20838;-73
2021/03/26 12:18:54;;;;;;;8.20;5.63;;;24.70;32.00;;;;;;5095754;28;20436;-73
2021/03/26 12:21:31;;;;;;;12.33;5.20;;;24.20;33.00;;;;;;5095993;28;20459;-73
2021/03/26 12:24:08;;;;;;;9.53;5.37;;;23.90;33.80;;;;;;5095851;28;20459;-73
2021/03/26 12:26:40;;;;;;;6.37;4.80;;;24.60;32.30;;;;;;5095600;28;20502;-73
2021/03/26 12:29:17;;;;;;;7.23;4.83;;;25.70;30.50;;;;;;5095830;28;20579;-73
2021/03/26 12:31:55;;;;;;;6.77;4.63;;;25.60;29.50;;;;;;5095295;28;20459;-73
2021/03/26 12:34:51;;;;;;;10.33;5.10;;;24.90;30.70;;;;;;5095343;28;20472;-73
2021/03/26 12:37:25;;;;;;;6.20;4.00;;;24.40;31.90;;;;;;5095652;28;20452;-73
2021/03/26 12:40:04;;;;;;;4.50;3.60;;;24.70;31.30;;;;;;5095519;28;20432;-73
2021/03/26 12:42:39;;;;;;;3.87;3.20;;;25.40;29.80;;;;;;5096060;28;20497;-72
2021/03/26 12:45:11;;;;;;;5.70;2.90;;;26.00;29.00;;;;;;5095636;28;20424;-72
2021/03/26 12:47:44;;;;;;;3.90;2.73;;;26.80;28.00;;;;;;5095456;28;20435;-72
2021/03/26 12:50:14;;;;;;;6.70;3.70;;;26.60;27.80;;;;;;5095466;28;20424;-72
2021/03/26 12:52:47;;;;;;;3.33;2.50;;;26.40;28.40;;;;;;5095346;28;20965;-73
2021/03/26 12:55:22;;;;;;;5.10;2.90;;;26.90;27.30;;;;;;5095287;28;20464;-72
2021/03/26 12:58:10;;;;;;;6.40;2.60;;;27.60;27.60;;;;;;5096128;28;20465;-73
2021/03/26 13:00:42;;;;;;;3.50;2.67;;;28.60;26.00;;;;;;5095146;28;20445;-72
2021/03/26 13:03:15;;;;;;;8.10;3.20;;;29.20;24.80;;;;;;5095014;28;20470;-74
2021/03/26 13:05:46;;;;;;;5.27;2.87;;;29.70;23.80;;;;;;5095151;28;20467;-73
2021/03/26 13:08:20;;;;;;;7.70;2.87;;;30.00;24.20;;;;;;5094667;28;20452;-73
2021/03/26 13:10:55;;;;;;;3.00;2.67;;;28.80;23.60;;;;;;5094666;28;20424;-73
2021/03/26 13:13:31;;;;;;;4.17;3.30;;;27.40;25.10;;;;;;5094949;28;20499;-71
2021/03/26 13:16:29;;;;;;;5.13;2.40;;;26.10;26.70;;;;;;5094958;28;20779;-73
2021/03/26 13:18:57;;;;;;;5.20;2.50;;;25.30;28.00;;;;;;5084224;28;20852;-72
2021/03/26 13:21:51;;;;;;;6.20;2.60;;;25.90;28.40;;;;;;5094758;28;20500;-72
2021/03/26 13:24:29;;;;;;;3.80;2.37;;;27.10;26.00;;;;;;5094722;28;20531;-74